createdAt,value
2017-11-07T00:01:13.506Z,16.58
2017-11-07T00:03:41.171Z,14.60
2017-11-07T00:06:08.825Z,14.85
2017-11-07T00:08:36.565Z,13.85
2017-11-07T00:11:04.305Z,14.95
2017-11-07T00:13:31.905Z,14.07
2017-11-07T00:15:59.485Z,14.87
2017-11-07T00:18:27.047Z,13.93
2017-11-07T00:20:54.730Z,14.27
2017-11-07T00:23:23.125Z,13.73
2017-11-07T00:25:50.689Z,13.40
2017-11-07T00:28:18.832Z,14.05
2017-11-07T00:30:47.264Z,13.70
2017-11-07T00:33:14.869Z,13.77
2017-11-07T00:35:43.272Z,13.13
2017-11-07T00:38:11.683Z,14.93
2017-11-07T00:40:39.292Z,14.48
2017-11-07T00:43:07.645Z,13.85
2017-11-07T00:45:35.270Z,14.30
2017-11-07T00:48:02.910Z,14.10
2017-11-07T00:50:30.543Z,14.35
2017-11-07T00:52:58.142Z,16.92
2017-11-07T00:55:25.776Z,13.98
2017-11-07T00:57:54.214Z,15.65
2017-11-07T01:00:21.809Z,14.82
2017-11-07T01:02:49.711Z,13.48
2017-11-07T01:05:17.305Z,14.70
2017-11-07T01:07:44.990Z,14.48
2017-11-07T01:10:12.619Z,13.00
2017-11-07T01:12:40.188Z,12.70
2017-11-07T01:15:07.764Z,15.57
2017-11-07T01:17:35.435Z,15.35
2017-11-07T01:20:03.086Z,14.10
2017-11-07T01:22:30.684Z,14.80
2017-11-07T01:24:59.020Z,15.45
2017-11-07T01:27:26.692Z,15.90
2017-11-07T01:29:54.334Z,14.18
2017-11-07T01:32:22.705Z,16.10
2017-11-07T01:34:50.342Z,16.17
2017-11-07T01:37:17.953Z,14.85
2017-11-07T01:39:45.559Z,15.80
2017-11-07T01:42:13.196Z,14.85
2017-11-07T01:44:40.853Z,14.50
2017-11-07T01:47:09.209Z,16.83
2017-11-07T01:49:36.804Z,14.95
2017-11-07T01:52:05.221Z,14.32
2017-11-07T01:54:32.841Z,15.15
2017-11-07T01:57:05.111Z,15.18
2017-11-07T01:59:32.782Z,14.60
2017-11-07T02:02:01.128Z,14.55
2017-11-07T02:04:28.753Z,12.60
2017-11-07T02:06:56.403Z,14.93
2017-11-07T02:09:24.011Z,14.63
2017-11-07T02:11:51.646Z,14.38
2017-11-07T02:14:19.254Z,15.65
2017-11-07T02:16:46.885Z,16.52
2017-11-07T02:19:14.533Z,16.55
2017-11-07T02:21:42.155Z,18.67
2017-11-07T02:24:09.777Z,16.40
2017-11-07T02:26:37.374Z,17.90
2017-11-07T02:29:05.036Z,17.35
2017-11-07T02:31:32.658Z,16.33
2017-11-07T02:34:00.347Z,17.62
2017-11-07T02:36:28.467Z,19.40
2017-11-07T02:38:56.107Z,18.62
2017-11-07T02:41:23.747Z,17.02
2017-11-07T02:43:51.373Z,15.73
2017-11-07T02:46:19.006Z,20.83
2017-11-07T02:48:46.631Z,17.77
2017-11-07T02:51:14.298Z,17.33
2017-11-07T02:53:41.894Z,17.25
2017-11-07T02:56:09.492Z,17.52
2017-11-07T02:58:37.985Z,17.92
2017-11-07T03:01:05.567Z,18.15
2017-11-07T03:03:33.229Z,18.10
2017-11-07T03:06:00.963Z,20.12
2017-11-07T03:08:29.357Z,20.15
2017-11-07T03:10:56.932Z,19.10
2017-11-07T03:13:24.618Z,18.00
2017-11-07T03:15:52.273Z,18.12
2017-11-07T03:18:19.918Z,18.35
2017-11-07T03:20:47.553Z,16.60
2017-11-07T03:23:15.147Z,17.73
2017-11-07T03:25:42.793Z,18.08
2017-11-07T03:28:10.394Z,17.87
2017-11-07T03:30:38.072Z,17.35
2017-11-07T03:33:05.697Z,16.50
2017-11-07T03:35:34.061Z,17.33
2017-11-07T03:38:01.668Z,17.15
2017-11-07T03:40:29.257Z,17.17
2017-11-07T03:42:56.860Z,17.08
2017-11-07T03:45:25.228Z,16.00
2017-11-07T03:47:53.601Z,17.65
2017-11-07T03:50:21.208Z,15.85
2017-11-07T03:52:48.824Z,17.50
2017-11-07T03:55:16.460Z,15.43
2017-11-07T03:57:44.097Z,16.55
2017-11-07T04:00:11.963Z,17.02
2017-11-07T04:02:39.524Z,13.70
2017-11-07T04:05:07.167Z,16.55
2017-11-07T04:07:34.811Z,14.20
2017-11-07T04:10:02.462Z,13.68
2017-11-07T04:12:30.110Z,14.65
2017-11-07T04:14:57.721Z,15.13
2017-11-07T04:17:25.306Z,13.98
2017-11-07T04:19:53.039Z,13.98
2017-11-07T04:22:20.655Z,14.65
2017-11-07T04:24:48.261Z,14.60
2017-11-07T04:27:16.614Z,13.18
2017-11-07T04:29:44.234Z,14.27
2017-11-07T04:32:11.863Z,12.77
2017-11-07T04:34:40.202Z,14.73
2017-11-07T04:37:07.839Z,13.95
2017-11-07T04:39:35.448Z,15.70
2017-11-07T04:42:04.382Z,16.70
2017-11-07T04:44:32.830Z,14.80
2017-11-07T04:47:01.241Z,13.55
2017-11-07T04:49:28.871Z,14.87
2017-11-07T04:51:57.305Z,12.15
2017-11-07T04:54:24.909Z,15.52
2017-11-07T04:56:53.813Z,14.48
2017-11-07T04:59:21.443Z,12.70
2017-11-07T05:01:49.073Z,15.75
2017-11-07T05:04:16.695Z,13.62
2017-11-07T05:06:45.062Z,13.48
2017-11-07T05:09:13.447Z,17.08
2017-11-07T05:11:41.887Z,12.52
2017-11-07T05:14:09.481Z,11.90
2017-11-07T05:16:37.832Z,13.48
2017-11-07T05:19:05.477Z,12.40
2017-11-07T05:21:33.120Z,12.25
2017-11-07T05:24:00.741Z,13.40
2017-11-07T05:26:29.108Z,13.02
2017-11-07T05:28:56.854Z,12.93
2017-11-07T05:31:24.482Z,12.18
2017-11-07T05:33:52.056Z,13.18
2017-11-07T05:36:19.693Z,12.60
2017-11-07T05:38:47.313Z,12.45
2017-11-07T05:41:15.718Z,12.95
2017-11-07T05:43:43.349Z,12.77
2017-11-07T05:46:11.751Z,12.37
2017-11-07T05:48:39.312Z,12.40
2017-11-07T05:51:06.920Z,13.65
2017-11-07T05:53:34.590Z,14.13
2017-11-07T05:56:02.425Z,12.02
2017-11-07T05:58:30.048Z,12.65
2017-11-07T06:00:57.641Z,13.00
2017-11-07T06:03:25.306Z,12.30
2017-11-07T06:05:53.047Z,13.88
2017-11-07T06:08:20.655Z,12.10
2017-11-07T06:10:48.286Z,10.95
2017-11-07T06:13:15.881Z,11.45
2017-11-07T06:15:43.487Z,12.18
2017-11-07T06:18:11.102Z,12.63
2017-11-07T06:20:40.259Z,10.93
2017-11-07T06:23:07.846Z,11.35
2017-11-07T06:25:35.450Z,12.27
2017-11-07T06:28:03.156Z,11.65
2017-11-07T06:30:30.743Z,11.88
2017-11-07T06:32:58.374Z,11.25
2017-11-07T06:35:26.003Z,11.05
2017-11-07T06:37:53.737Z,11.85
2017-11-07T06:40:21.351Z,13.07
2017-11-07T06:42:49.024Z,13.43
2017-11-07T06:45:16.611Z,11.98
2017-11-07T06:47:44.306Z,12.07
2017-11-07T06:50:11.945Z,11.65
2017-11-07T06:52:39.608Z,11.60
2017-11-07T06:55:07.206Z,11.50
2017-11-07T06:57:34.875Z,12.32
2017-11-07T07:00:02.497Z,15.27
2017-11-07T07:02:30.080Z,11.73
2017-11-07T07:04:57.776Z,12.98
2017-11-07T07:07:25.549Z,13.35
2017-11-07T07:09:53.169Z,13.70
2017-11-07T07:12:20.732Z,12.18
2017-11-07T07:14:48.466Z,13.52
2017-11-07T07:17:16.853Z,11.00
2017-11-07T07:19:44.456Z,11.35
2017-11-07T07:22:12.049Z,11.70
2017-11-07T07:24:39.696Z,15.05
2017-11-07T07:27:07.421Z,13.57
2017-11-07T07:29:34.997Z,12.88
2017-11-07T07:32:03.460Z,13.55
2017-11-07T07:34:31.042Z,13.27
2017-11-07T07:36:59.425Z,14.68
2017-11-07T07:39:27.041Z,15.10
2017-11-07T07:41:54.749Z,15.20
2017-11-07T07:44:22.927Z,15.57
2017-11-07T07:46:50.561Z,17.08
2017-11-07T07:49:18.301Z,16.60
2017-11-07T07:51:45.978Z,17.45
2017-11-07T07:54:13.721Z,16.33
2017-11-07T07:56:42.082Z,16.90
2017-11-07T07:59:10.455Z,14.98
2017-11-07T08:01:38.044Z,16.77
2017-11-07T08:04:05.703Z,15.40
2017-11-07T08:06:33.390Z,17.37
2017-11-07T08:09:01.028Z,16.25
2017-11-07T08:11:28.654Z,15.10
2017-11-07T08:13:56.351Z,15.15
2017-11-07T08:16:24.062Z,15.13
2017-11-07T08:18:51.651Z,13.62
2017-11-07T08:21:19.363Z,17.20
2017-11-07T08:23:47.139Z,14.65
2017-11-07T08:26:14.870Z,13.85
2017-11-07T08:28:42.492Z,17.12
2017-11-07T08:31:10.104Z,14.50
2017-11-07T08:33:37.793Z,15.30
2017-11-07T08:36:05.484Z,15.80
2017-11-07T08:38:33.147Z,15.88
2017-11-07T08:41:00.805Z,13.57
2017-11-07T08:43:28.471Z,15.93
2017-11-07T08:45:56.211Z,14.48
2017-11-07T08:48:23.823Z,13.52
2017-11-07T08:50:51.720Z,16.08
2017-11-07T08:53:19.346Z,15.35
2017-11-07T08:55:47.734Z,17.27
2017-11-07T08:58:15.358Z,12.90
2017-11-07T09:00:43.041Z,15.70
2017-11-07T09:03:11.498Z,16.50
2017-11-07T09:05:39.165Z,16.48
2017-11-07T09:08:06.826Z,15.93
2017-11-07T09:10:34.587Z,15.02
2017-11-07T09:13:02.311Z,15.50
2017-11-07T09:15:30.030Z,14.65
2017-11-07T09:17:57.769Z,14.55
2017-11-07T09:20:25.395Z,15.20
2017-11-07T09:22:52.998Z,15.60
2017-11-07T09:25:20.783Z,15.85
2017-11-07T09:27:48.383Z,15.77
2017-11-07T09:30:16.043Z,16.12
2017-11-07T09:32:43.799Z,16.95
2017-11-07T09:35:12.129Z,16.55
2017-11-07T09:37:39.767Z,16.05
2017-11-07T09:40:07.383Z,18.10
2017-11-07T09:42:35.067Z,14.05
2017-11-07T09:45:02.665Z,16.90
2017-11-07T09:47:30.297Z,14.30
2017-11-07T09:49:57.979Z,16.92
2017-11-07T09:52:26.462Z,15.13
2017-11-07T09:54:54.609Z,17.52
2017-11-07T09:57:22.228Z,17.25
2017-11-07T09:59:50.479Z,16.52
2017-11-07T10:02:18.107Z,18.83
2017-11-07T10:04:46.056Z,16.77
2017-11-07T10:07:14.443Z,20.23
2017-11-07T10:09:42.009Z,15.98
2017-11-07T10:12:09.664Z,17.42
2017-11-07T10:14:37.251Z,19.30
2017-11-07T10:17:04.915Z,19.40
2017-11-07T10:19:32.515Z,18.70
2017-11-07T10:22:00.181Z,15.20
2017-11-07T10:24:27.847Z,16.05
2017-11-07T10:26:55.495Z,17.25
2017-11-07T10:29:23.218Z,16.05
2017-11-07T10:31:50.883Z,17.25
2017-11-07T10:34:18.554Z,18.23
2017-11-07T10:36:46.213Z,17.12
2017-11-07T10:39:13.889Z,17.10
2017-11-07T10:41:41.562Z,16.02
2017-11-07T10:44:09.194Z,16.40
2017-11-07T10:46:36.828Z,17.15
2017-11-07T10:49:04.399Z,15.02
2017-11-07T10:51:31.997Z,15.93
2017-11-07T10:53:59.609Z,17.35
2017-11-07T10:56:27.238Z,17.90
2017-11-07T10:58:55.350Z,17.60
2017-11-07T11:01:22.969Z,15.73
2017-11-07T11:03:50.586Z,16.60
2017-11-07T11:06:18.220Z,15.88
2017-11-07T11:08:46.610Z,15.80
2017-11-07T11:11:14.269Z,15.57
2017-11-07T11:13:41.958Z,17.33
2017-11-07T11:16:10.259Z,16.08
2017-11-07T11:18:37.915Z,17.50
2017-11-07T11:21:06.166Z,16.50
2017-11-07T11:23:33.761Z,14.80
2017-11-07T11:26:01.539Z,17.25
2017-11-07T11:28:29.189Z,17.25
2017-11-07T11:30:56.745Z,16.67
2017-11-07T11:33:24.333Z,16.62
2017-11-07T11:35:51.907Z,16.12
2017-11-07T11:38:19.531Z,16.40
2017-11-07T11:40:47.128Z,18.55
2017-11-07T11:43:14.820Z,17.58
2017-11-07T11:45:43.843Z,17.55
2017-11-07T11:48:11.591Z,18.30
2017-11-07T11:50:39.186Z,16.80
2017-11-07T11:53:07.029Z,18.60
2017-11-07T11:55:35.470Z,21.20
2017-11-07T11:58:03.258Z,25.20
2017-11-07T12:00:31.539Z,20.88
2017-11-07T12:02:59.930Z,19.62
2017-11-07T12:05:27.529Z,21.27
2017-11-07T12:07:55.324Z,16.85
2017-11-07T12:10:22.931Z,23.62
2017-11-07T12:12:50.526Z,19.55
2017-11-07T12:15:18.132Z,18.65
2017-11-07T12:17:45.836Z,17.45
2017-11-07T12:20:13.431Z,16.50
2017-11-07T12:22:41.026Z,17.60
2017-11-07T12:25:08.672Z,16.85
2017-11-07T12:27:36.345Z,17.40
2017-11-07T12:30:04.116Z,17.05
2017-11-07T12:32:31.781Z,16.08
2017-11-07T12:35:00.351Z,16.48
2017-11-07T12:37:28.011Z,16.95
2017-11-07T12:39:55.592Z,18.40
2017-11-07T12:42:23.246Z,16.52
2017-11-07T12:44:50.852Z,17.50
2017-11-07T12:47:18.511Z,15.57
2017-11-07T12:49:46.109Z,15.50
2017-11-07T12:52:13.703Z,15.18
2017-11-07T12:54:41.334Z,14.90
2017-11-07T12:57:08.931Z,16.50
2017-11-07T12:59:36.500Z,16.85
2017-11-07T13:02:04.088Z,17.20
2017-11-07T13:04:31.709Z,15.93
2017-11-07T13:06:59.558Z,16.65
2017-11-07T13:09:27.146Z,17.98
2017-11-07T13:11:54.802Z,16.75
2017-11-07T13:14:22.396Z,17.25
2017-11-07T13:16:50.029Z,15.60
2017-11-07T13:19:17.661Z,14.80
2017-11-07T13:21:45.361Z,15.80
2017-11-07T13:24:13.766Z,15.90
2017-11-07T13:26:42.307Z,16.00
2017-11-07T13:29:09.949Z,15.68
2017-11-07T13:31:37.585Z,17.17
2017-11-07T13:34:05.221Z,15.60
2017-11-07T13:36:33.591Z,16.15
2017-11-07T13:39:02.081Z,15.57
2017-11-07T13:41:29.754Z,14.87
2017-11-07T13:43:57.635Z,15.05
2017-11-07T13:46:25.264Z,14.75
2017-11-07T13:48:54.377Z,12.20
2017-11-07T13:51:22.876Z,14.27
2017-11-07T13:53:50.563Z,13.05
2017-11-07T13:56:18.201Z,13.27
2017-11-07T13:58:45.887Z,14.10
2017-11-07T14:01:13.621Z,14.38
2017-11-07T14:03:41.339Z,14.48
2017-11-07T14:06:09.059Z,13.10
2017-11-07T14:08:36.689Z,13.10
2017-11-07T14:11:04.368Z,13.43
2017-11-07T14:13:32.075Z,13.02
2017-11-07T14:15:59.690Z,12.73
2017-11-07T14:18:27.812Z,14.20
2017-11-07T14:20:55.411Z,12.60
2017-11-07T14:23:23.053Z,12.02
2017-11-07T14:25:51.433Z,12.55
2017-11-07T14:28:19.007Z,12.37
2017-11-07T14:30:46.650Z,22.65
2017-11-07T14:33:14.275Z,50.95
2017-11-07T14:35:41.950Z,14.75
2017-11-07T14:38:09.603Z,11.27
2017-11-07T14:40:37.179Z,11.93
2017-11-07T14:43:04.984Z,11.75
2017-11-07T14:45:32.561Z,11.40
2017-11-07T14:48:00.191Z,11.20
2017-11-07T14:50:28.673Z,13.30
2017-11-07T14:52:57.076Z,12.50
2017-11-07T14:55:24.822Z,11.50
2017-11-07T14:57:52.514Z,12.15
2017-11-07T15:00:20.946Z,11.12
2017-11-07T15:02:49.383Z,11.80
2017-11-07T15:05:17.080Z,11.50
2017-11-07T15:07:44.680Z,10.73
2017-11-07T15:10:12.368Z,11.77
2017-11-07T15:12:40.525Z,12.32
2017-11-07T15:15:08.248Z,14.93
2017-11-07T15:17:35.856Z,13.77
2017-11-07T15:20:03.556Z,14.77
2017-11-07T15:22:31.215Z,17.35
2017-11-07T15:24:58.831Z,14.40
2017-11-07T15:27:26.482Z,12.15
2017-11-07T15:29:54.186Z,12.35
2017-11-07T15:32:21.873Z,11.90
2017-11-07T15:34:50.269Z,11.90
2017-11-07T15:37:18.644Z,13.52
2017-11-07T15:39:47.003Z,22.20
2017-11-07T15:42:14.640Z,23.83
2017-11-07T15:44:42.223Z,12.55
2017-11-07T15:47:09.836Z,16.40
2017-11-07T15:49:37.465Z,12.50
2017-11-07T15:52:05.877Z,21.02
2017-11-07T15:54:33.490Z,26.67
2017-11-07T15:57:01.976Z,12.95
2017-11-07T15:59:29.649Z,20.65
2017-11-07T16:01:57.270Z,12.00
2017-11-07T16:04:24.888Z,15.25
2017-11-07T16:06:52.504Z,17.58
2017-11-07T16:09:20.108Z,12.18
2017-11-07T16:11:47.742Z,18.37
2017-11-07T16:14:16.156Z,11.02
2017-11-07T16:16:43.770Z,14.25
2017-11-07T16:19:11.379Z,20.80
2017-11-07T16:21:39.108Z,11.32
2017-11-07T16:24:06.727Z,12.27
2017-11-07T16:26:34.431Z,12.05
2017-11-07T16:29:02.047Z,11.88
2017-11-07T16:31:29.766Z,11.57
2017-11-07T16:33:57.467Z,12.60
2017-11-07T16:36:25.202Z,11.95
2017-11-07T16:38:52.831Z,11.65
2017-11-07T16:41:20.422Z,12.95
2017-11-07T16:43:48.837Z,12.20
2017-11-07T16:46:16.496Z,15.75
2017-11-07T16:48:44.134Z,15.70
2017-11-07T16:51:11.824Z,13.82
2017-11-07T16:56:15.689Z,12.77
2017-11-07T16:58:43.825Z,19.83
2017-11-07T17:01:11.425Z,13.25
2017-11-07T17:03:39.024Z,14.13
2017-11-07T17:06:06.737Z,11.93
2017-11-07T17:08:34.385Z,13.40
2017-11-07T17:11:02.229Z,19.30
2017-11-07T17:13:29.845Z,14.13
2017-11-07T17:15:57.465Z,11.98
2017-11-07T17:18:25.144Z,14.10
2017-11-07T17:20:52.776Z,11.48
2017-11-07T17:23:20.558Z,12.05
2017-11-07T17:25:48.296Z,12.52
2017-11-07T17:28:16.033Z,12.85
2017-11-07T17:30:43.606Z,12.93
2017-11-07T17:33:11.205Z,13.38
2017-11-07T17:35:39.358Z,12.20
2017-11-07T17:38:07.115Z,13.82
2017-11-07T17:40:36.876Z,11.85
2017-11-07T17:43:04.517Z,12.82
2017-11-07T17:45:32.200Z,13.52
2017-11-07T17:47:59.874Z,16.62
2017-11-07T17:50:27.470Z,14.52
2017-11-07T17:52:55.167Z,12.00
2017-11-07T17:55:22.817Z,12.63
2017-11-07T17:57:50.558Z,13.50
2017-11-07T18:00:18.358Z,17.50
2017-11-07T18:02:47.932Z,12.43
2017-11-07T18:05:15.571Z,10.93
2017-11-07T18:07:45.011Z,11.32
2017-11-07T18:10:12.785Z,11.63
2017-11-07T18:12:40.416Z,12.70
2017-11-07T18:15:08.038Z,11.93
2017-11-07T18:17:35.665Z,11.18
2017-11-07T18:20:03.446Z,11.25
2017-11-07T18:22:31.102Z,12.10
2017-11-07T18:24:58.746Z,13.40
2017-11-07T18:27:26.395Z,12.15
2017-11-07T18:29:54.262Z,13.57
2017-11-07T18:32:21.904Z,13.40
2017-11-07T18:34:49.620Z,13.52
2017-11-07T18:37:17.329Z,11.88
2017-11-07T18:39:45.730Z,11.73
2017-11-07T18:42:13.411Z,12.60
2017-11-07T18:44:41.880Z,10.43
2017-11-07T18:47:10.282Z,12.70
2017-11-07T18:49:38.728Z,11.90
2017-11-07T18:52:06.361Z,13.95
2017-11-07T18:54:34.060Z,11.63
2017-11-07T18:57:01.691Z,13.25
2017-11-07T18:59:29.936Z,13.20
2017-11-07T19:01:57.566Z,11.50
2017-11-07T19:04:25.207Z,11.75
2017-11-07T19:06:52.922Z,11.45
2017-11-07T19:09:21.519Z,11.27
2017-11-07T19:11:49.912Z,12.68
2017-11-07T19:14:18.591Z,12.35
2017-11-07T19:16:46.291Z,12.63
2017-11-07T19:19:13.966Z,13.13
2017-11-07T19:21:41.648Z,12.98
2017-11-07T19:24:09.403Z,12.73
2017-11-07T19:26:37.129Z,13.02
2017-11-07T19:29:04.785Z,12.95
2017-11-07T19:31:32.501Z,13.35
2017-11-07T19:34:00.157Z,12.48
2017-11-07T19:36:28.370Z,12.25
2017-11-07T19:38:56.070Z,16.05
2017-11-07T19:41:24.525Z,13.15
2017-11-07T19:43:52.163Z,14.27
2017-11-07T19:46:19.811Z,14.68
2017-11-07T19:48:47.740Z,15.48
2017-11-07T19:51:15.385Z,14.07
2017-11-07T19:53:43.014Z,13.50
2017-11-07T19:56:10.654Z,15.02
2017-11-07T19:58:38.339Z,16.73
2017-11-07T20:01:05.989Z,15.88
2017-11-07T20:03:33.639Z,17.08
2017-11-07T20:06:01.281Z,14.65
2017-11-07T20:08:28.982Z,16.48
2017-11-07T20:10:56.693Z,15.50
2017-11-07T20:13:24.641Z,15.02
2017-11-07T20:15:52.303Z,14.93
2017-11-07T20:18:19.970Z,15.75
2017-11-07T20:20:47.650Z,15.35
2017-11-07T20:23:15.287Z,17.17
2017-11-07T20:25:42.873Z,15.80
2017-11-07T20:28:10.507Z,17.70
2017-11-07T20:30:38.167Z,17.08
2017-11-07T20:33:05.760Z,16.62
2017-11-07T20:35:34.280Z,17.27
2017-11-07T20:38:01.927Z,15.45
2017-11-07T20:40:29.649Z,16.45
2017-11-07T20:42:57.322Z,17.77
2017-11-07T20:45:25.020Z,16.12
2017-11-07T20:47:52.867Z,17.42
2017-11-07T20:50:20.629Z,18.67
2017-11-07T20:52:48.386Z,19.50
2017-11-07T20:55:15.999Z,17.90
2017-11-07T20:57:43.596Z,16.20
2017-11-07T21:00:11.406Z,17.75
2017-11-07T21:02:39.071Z,17.90
2017-11-07T21:05:06.750Z,18.40
2017-11-07T21:07:34.310Z,20.85
2017-11-07T21:10:02.741Z,19.52
2017-11-07T21:12:30.363Z,20.05
2017-11-07T21:14:57.952Z,20.05
2017-11-07T21:17:25.607Z,20.15
2017-11-07T21:19:53.474Z,20.55
2017-11-07T21:22:21.125Z,17.48
2017-11-07T21:24:48.889Z,19.90
2017-11-07T21:27:16.527Z,18.40
2017-11-07T21:29:45.009Z,19.58
2017-11-07T21:32:13.554Z,21.73
2017-11-07T21:34:42.054Z,20.58
2017-11-07T21:37:10.892Z,19.00
2017-11-07T21:39:38.591Z,19.95
2017-11-07T21:42:06.206Z,20.33
2017-11-07T21:44:33.889Z,20.52
2017-11-07T21:47:01.490Z,20.15
2017-11-07T21:49:29.151Z,19.42
2017-11-07T21:51:56.788Z,19.70
2017-11-07T21:54:24.406Z,18.92
2017-11-07T21:56:52.034Z,20.80
2017-11-07T21:59:19.771Z,20.50
2017-11-07T22:01:47.394Z,21.80
2017-11-07T22:04:15.027Z,19.30
2017-11-07T22:06:43.506Z,18.40
2017-11-07T22:09:13.099Z,20.95
2017-11-07T22:11:40.968Z,20.08
2017-11-07T22:14:08.603Z,18.02
2017-11-07T22:16:41.833Z,20.55
2017-11-07T22:19:09.513Z,22.67
2017-11-07T22:21:37.879Z,19.12
2017-11-07T22:24:05.483Z,19.42
2017-11-07T22:26:35.867Z,19.08
2017-11-07T22:29:03.464Z,20.02
2017-11-07T22:31:31.852Z,21.45
2017-11-07T22:33:59.438Z,20.90
2017-11-07T22:36:27.041Z,21.27
2017-11-07T22:38:54.630Z,20.20
2017-11-07T22:41:22.262Z,22.00
2017-11-07T22:43:49.903Z,23.38
2017-11-07T22:46:18.306Z,20.92
2017-11-07T22:48:45.939Z,20.62
2017-11-07T22:51:13.622Z,19.58
2017-11-07T22:53:41.266Z,19.00
2017-11-07T22:56:08.886Z,20.37
2017-11-07T22:58:36.603Z,19.52
2017-11-07T23:01:04.941Z,22.27
2017-11-07T23:03:32.546Z,20.33
2017-11-07T23:06:00.941Z,20.12
2017-11-07T23:08:28.550Z,21.60
2017-11-07T23:10:56.947Z,22.35
2017-11-07T23:13:28.458Z,19.70
2017-11-07T23:15:56.204Z,22.25
2017-11-07T23:18:23.808Z,20.52
2017-11-07T23:20:51.530Z,19.87
2017-11-07T23:23:19.929Z,21.23
2017-11-07T23:25:47.563Z,20.45
2017-11-07T23:28:15.977Z,19.60
2017-11-07T23:30:43.582Z,20.20
2017-11-07T23:33:11.249Z,19.35
2017-11-07T23:35:38.922Z,23.02
2017-11-07T23:38:06.580Z,22.17
2017-11-07T23:40:34.246Z,22.15
2017-11-07T23:43:02.653Z,20.77
2017-11-07T23:45:30.289Z,22.08
2017-11-07T23:47:58.153Z,21.00
2017-11-07T23:50:26.511Z,20.67
2017-11-07T23:52:54.185Z,20.55
2017-11-07T23:55:21.824Z,22.40
2017-11-07T23:57:49.480Z,23.70
